Barbarossa — ZDFA4 — position and weather

sailwx.info

Track history (hours):
 
Tides and Currents Weather Stations Pressure Air Temp Water Temp Dewpoint Dewpoint Depression Visibility Wind Speed Wind Dir Waves Ship Positions

Barbarossa

Last reported at 2015-Mar-26 06:05 UTC. Time now 2015-Mar-27 20:55 UTC.
Position N 55°04' E 016°00'.

Length 83 m; draft 3.9 m.

Type: Cargo ship. MMSI: 236029000.

Date/timePositionNaut miles runAvg speedWind from/ knotsBaromVisibWave heightAir tempDewpointWater temp
2015-Mar-26 06:05N 55°04' E 016°00'5 9.3
2015-Mar-26 05:33N 55°03' E 015°52'9 9.2
2015-Mar-26 04:33N 55°01' E 015°36'9 8.7
2015-Mar-26 03:33N 54°59' E 015°22'8 8.5
2015-Mar-26 02:33N 54°56' E 015°07'9 8.9
2015-Mar-26 01:33N 54°55' E 014°52'9 8.5
2015-Mar-26 00:33N 54°54' E 014°37'8 8.2
2015-Mar-25 23:33N 54°53' E 014°23'7 7.4
2015-Mar-25 22:33N 54°52' E 014°10'8 7.4
2015-Mar-25 21:30N 54°50' E 013°57'6 6.3
2015-Mar-25 20:32N 54°50' E 013°46'5 5.5
2015-Mar-25 19:33N 54°49' E 013°37'6 6.0
2015-Mar-25 18:33N 54°48' E 013°27'9 7.4
2015-Mar-25 17:20N 54°46' E 013°11'8 9.4
2015-Mar-25 16:30N 54°45' E 012°58'9 9.7
2015-Mar-25 15:33N 54°43' E 012°43'1010.1
2015-Mar-25 14:31N 54°38' E 012°27'1010.0
2015-Mar-25 13:33N 54°30' E 012°16'1010.1
2015-Mar-25 12:33N 54°21' E 012°09'10 9.7
2015-Mar-25 11:33N 54°12' E 012°05'3 2.5
2015-Mar-25 10:32N 54°09' E 012°07'0 0.0
2015-Mar-25 09:29N 54°09' E 012°07'0 0.0
2015-Mar-25 08:29N 54°09' E 012°07'0 0.0
2015-Mar-25 07:28N 54°09' E 012°07'0 0.0
2015-Mar-25 06:25N 54°09' E 012°07'0 0.0
2015-Mar-25 05:33N 54°09' E 012°07'0 0.0
2015-Mar-25 04:30N 54°09' E 012°07'0 0.0
2015-Mar-25 03:29N 54°09' E 012°07'0 0.0
2015-Mar-25 02:29N 54°09' E 012°07'0 0.0
2015-Mar-25 01:13N 54°09' E 012°07'0 0.0
2015-Mar-25 00:32N 54°09' E 012°07'0 0.0
2015-Mar-24 23:33N 54°09' E 012°07'0 0.0
2015-Mar-24 22:32N 54°09' E 012°07'0 0.0
2015-Mar-24 21:26N 54°09' E 012°07'0 0.0
2015-Mar-24 20:32N 54°09' E 012°07'0 0.0
2015-Mar-24 19:25N 54°09' E 012°07'0 0.0
2015-Mar-24 18:25N 54°09' E 012°07'0 0.0
2015-Mar-24 17:33N 54°09' E 012°07'0 0.0
2015-Mar-24 16:30N 54°09' E 012°07'0 0.0
2015-Mar-24 15:26N 54°09' E 012°07'0 0.0
2015-Mar-24 14:32N 54°09' E 012°07'0 0.0
2015-Mar-24 13:32N 54°09' E 012°07'0 0.0
2015-Mar-24 12:31N 54°09' E 012°07'0 0.0
2015-Mar-24 11:32N 54°09' E 012°07'0 0.0
2015-Mar-24 10:20N 54°09' E 012°07'0 0.0
2015-Mar-24 09:31N 54°09' E 012°07'0 0.0
2015-Mar-24 08:25N 54°09' E 012°07'0 0.0
2015-Mar-24 07:31N 54°09' E 012°07'0 0.1
2015-Mar-24 06:33N 54°10' E 012°07'8 7.6
2015-Mar-24 05:33N 54°17' E 012°02'9 9.1
2015-Mar-24 04:33N 54°26' E 012°01'8 8.4
2015-Mar-24 03:33N 54°31' E 012°11'1310.2
2015-Mar-24 02:17N 54°43' E 012°21'26 9.6
2015-Mar-23 23:33N 55°08' E 012°38'1010.4
2015-Mar-23 22:33N 55°18' E 012°38'1010.4
2015-Mar-23 21:33N 55°28' E 012°40'10 9.7
2015-Mar-23 20:33N 55°38' E 012°42'10 9.8
2015-Mar-23 19:33N 55°48' E 012°41'1110.6
2015-Mar-23 18:33N 55°58' E 012°38'1010.0
2015-Mar-23 17:33N 56°07' E 012°30'1110.7
2015-Mar-23 16:33N 56°13' E 012°14'1510.3
2015-Mar-23 15:09N 56°26' E 011°60'710.5
2015-Mar-23 14:31N 56°32' E 011°57'1010.1
2015-Mar-23 13:33N 56°42' E 011°53'1110.5
2015-Mar-23 12:33N 56°51' E 011°47'1110.4
2015-Mar-23 11:33N 57°01' E 011°41'1010.2
2015-Mar-23 10:32N 57°11' E 011°35'1010.3
2015-Mar-23 09:33N 57°21' E 011°29'9 9.3
2015-Mar-23 08:33N 57°29' E 011°20'10 9.8
2015-Mar-23 07:33N 57°36' E 011°07'11 9.9
2015-Mar-23 06:28N 57°43' E 010°52'432 9.1
2015-Mar-21 07:16N 58°42' W 002°40'811.4
2015-Mar-21 06:33N 58°43' W 002°55'1211.7
2015-Mar-21 05:32N 58°44' W 003°18'7 7.3
2015-Mar-21 04:34N 58°43' W 003°32'9 9.2
2015-Mar-21 03:33N 58°42' W 003°49'9 9.4
2015-Mar-21 02:33N 58°42' W 004°07'10 9.4
2015-Mar-21 01:30N 58°41' W 004°27'189 8.8
2015-Mar-20 04:07N 55°49' W 006°52'810.6
2015-Mar-20 03:24N 55°43' W 006°44'1112.3
2015-Mar-20 02:33N 55°35' W 006°31'1313.6
2015-Mar-20 01:33N 55°26' W 006°13'1312.7
2015-Mar-20 00:33N 55°19' W 005°55'37 8.9
2015-Mar-19 20:21N 55°39' W 004°59'910.7
2015-Mar-19 19:33N 55°47' W 004°58'1010.3
2015-Mar-19 18:33N 55°57' W 004°53'9 9.2
2015-Mar-19 17:33N 55°56' W 004°36'9 9.2
2015-Mar-19 16:32N 55°52' W 004°21'0 0.3
2015-Mar-19 15:29N 55°52' W 004°21'0 0.0
2015-Mar-19 14:16N 55°52' W 004°21'0 0.0
2015-Mar-19 13:10N 55°52' W 004°21'0 0.0
2015-Mar-19 12:27N 55°52' W 004°21'0 0.0
2015-Mar-19 11:27N 55°52' W 004°21'0 0.0
2015-Mar-19 10:27N 55°52' W 004°21'0 0.0
2015-Mar-19 09:32N 55°52' W 004°21'0 0.0
2015-Mar-19 08:26N 55°52' W 004°21'0 0.0
2015-Mar-19 07:25N 55°52' W 004°21'0 0.0
2015-Mar-19 06:31N 55°52' W 004°21'1 0.3
2015-Mar-19 01:33N 55°53' W 004°23'11 8.6
2015-Mar-19 00:17N 55°56' W 004°41'7 8.9
2015-Mar-18 23:33N 55°57' W 004°53'1110.7
2015-Mar-18 22:33N 55°46' W 004°58'2510.8
2015-Mar-18 20:13N 55°21' W 005°04'811.0
2015-Mar-18 19:28N 55°14' W 005°10'910.4
2015-Mar-18 18:33N 55°05' W 005°13'9 9.3
2015-Mar-18 17:33N 54°55' W 005°16'10 9.9
2015-Mar-18 16:33N 54°46' W 005°15'1110.7
2015-Mar-18 15:33N 54°35' W 005°12'1110.9
2015-Mar-18 14:33N 54°24' W 005°08'1111.0
2015-Mar-18 13:33N 54°13' W 005°10'1210.8
2015-Mar-18 12:29N 54°02' W 005°14'  
Track history (hours):
 
Tides and Currents Weather Stations Pressure Air Temp Water Temp Dewpoint Dewpoint Depression Visibility Wind Speed Wind Dir Waves Ship Positions

Barbarossa

Last reported at 2015-Mar-26 06:05 UTC. Time now 2015-Mar-27 20:55 UTC.
Position N 55°04' E 016°00'.

Length 83 m; draft 3.9 m.

Type: Cargo ship. MMSI: 236029000.

Date/timePositionNaut miles runAvg speedWind from/ knotsBaromVisibWave heightAir tempDewpointWater temp
2015-Mar-26 06:05N 55°04' E 016°00'5 9.3
2015-Mar-26 05:33N 55°03' E 015°52'9 9.2
2015-Mar-26 04:33N 55°01' E 015°36'9 8.7
2015-Mar-26 03:33N 54°59' E 015°22'8 8.5
2015-Mar-26 02:33N 54°56' E 015°07'9 8.9
2015-Mar-26 01:33N 54°55' E 014°52'9 8.5
2015-Mar-26 00:33N 54°54' E 014°37'8 8.2
2015-Mar-25 23:33N 54°53' E 014°23'7 7.4
2015-Mar-25 22:33N 54°52' E 014°10'8 7.4
2015-Mar-25 21:30N 54°50' E 013°57'6 6.3
2015-Mar-25 20:32N 54°50' E 013°46'5 5.5
2015-Mar-25 19:33N 54°49' E 013°37'6 6.0
2015-Mar-25 18:33N 54°48' E 013°27'9 7.4
2015-Mar-25 17:20N 54°46' E 013°11'8 9.4
2015-Mar-25 16:30N 54°45' E 012°58'9 9.7
2015-Mar-25 15:33N 54°43' E 012°43'1010.1
2015-Mar-25 14:31N 54°38' E 012°27'1010.0
2015-Mar-25 13:33N 54°30' E 012°16'1010.1
2015-Mar-25 12:33N 54°21' E 012°09'10 9.7
2015-Mar-25 11:33N 54°12' E 012°05'3 2.5
2015-Mar-25 10:32N 54°09' E 012°07'0 0.0
2015-Mar-25 09:29N 54°09' E 012°07'0 0.0
2015-Mar-25 08:29N 54°09' E 012°07'0 0.0
2015-Mar-25 07:28N 54°09' E 012°07'0 0.0
2015-Mar-25 06:25N 54°09' E 012°07'0 0.0
2015-Mar-25 05:33N 54°09' E 012°07'0 0.0
2015-Mar-25 04:30N 54°09' E 012°07'0 0.0
2015-Mar-25 03:29N 54°09' E 012°07'0 0.0
2015-Mar-25 02:29N 54°09' E 012°07'0 0.0
2015-Mar-25 01:13N 54°09' E 012°07'0 0.0
2015-Mar-25 00:32N 54°09' E 012°07'0 0.0
2015-Mar-24 23:33N 54°09' E 012°07'0 0.0
2015-Mar-24 22:32N 54°09' E 012°07'0 0.0
2015-Mar-24 21:26N 54°09' E 012°07'0 0.0
2015-Mar-24 20:32N 54°09' E 012°07'0 0.0
2015-Mar-24 19:25N 54°09' E 012°07'0 0.0
2015-Mar-24 18:25N 54°09' E 012°07'0 0.0
2015-Mar-24 17:33N 54°09' E 012°07'0 0.0
2015-Mar-24 16:30N 54°09' E 012°07'0 0.0
2015-Mar-24 15:26N 54°09' E 012°07'0 0.0
2015-Mar-24 14:32N 54°09' E 012°07'0 0.0
2015-Mar-24 13:32N 54°09' E 012°07'0 0.0
2015-Mar-24 12:31N 54°09' E 012°07'0 0.0
2015-Mar-24 11:32N 54°09' E 012°07'0 0.0
2015-Mar-24 10:20N 54°09' E 012°07'0 0.0
2015-Mar-24 09:31N 54°09' E 012°07'0 0.0
2015-Mar-24 08:25N 54°09' E 012°07'0 0.0
2015-Mar-24 07:31N 54°09' E 012°07'0 0.1
2015-Mar-24 06:33N 54°10' E 012°07'8 7.6
2015-Mar-24 05:33N 54°17' E 012°02'9 9.1
2015-Mar-24 04:33N 54°26' E 012°01'8 8.4
2015-Mar-24 03:33N 54°31' E 012°11'1310.2
2015-Mar-24 02:17N 54°43' E 012°21'26 9.6
2015-Mar-23 23:33N 55°08' E 012°38'1010.4
2015-Mar-23 22:33N 55°18' E 012°38'1010.4
2015-Mar-23 21:33N 55°28' E 012°40'10 9.7
2015-Mar-23 20:33N 55°38' E 012°42'10 9.8
2015-Mar-23 19:33N 55°48' E 012°41'1110.6
2015-Mar-23 18:33N 55°58' E 012°38'1010.0
2015-Mar-23 17:33N 56°07' E 012°30'1110.7
2015-Mar-23 16:33N 56°13' E 012°14'1510.3
2015-Mar-23 15:09N 56°26' E 011°60'710.5
2015-Mar-23 14:31N 56°32' E 011°57'1010.1
2015-Mar-23 13:33N 56°42' E 011°53'1110.5
2015-Mar-23 12:33N 56°51' E 011°47'1110.4
2015-Mar-23 11:33N 57°01' E 011°41'1010.2
2015-Mar-23 10:32N 57°11' E 011°35'1010.3
2015-Mar-23 09:33N 57°21' E 011°29'9 9.3
2015-Mar-23 08:33N 57°29' E 011°20'10 9.8
2015-Mar-23 07:33N 57°36' E 011°07'11 9.9
2015-Mar-23 06:28N 57°43' E 010°52'432 9.1
2015-Mar-21 07:16N 58°42' W 002°40'811.4
2015-Mar-21 06:33N 58°43' W 002°55'1211.7
2015-Mar-21 05:32N 58°44' W 003°18'7 7.3
2015-Mar-21 04:34N 58°43' W 003°32'9 9.2
2015-Mar-21 03:33N 58°42' W 003°49'9 9.4
2015-Mar-21 02:33N 58°42' W 004°07'10 9.4
2015-Mar-21 01:30N 58°41' W 004°27'189 8.8
2015-Mar-20 04:07N 55°49' W 006°52'810.6
2015-Mar-20 03:24N 55°43' W 006°44'1112.3
2015-Mar-20 02:33N 55°35' W 006°31'1313.6
2015-Mar-20 01:33N 55°26' W 006°13'1312.7
2015-Mar-20 00:33N 55°19' W 005°55'37 8.9
2015-Mar-19 20:21N 55°39' W 004°59'910.7
2015-Mar-19 19:33N 55°47' W 004°58'1010.3
2015-Mar-19 18:33N 55°57' W 004°53'9 9.2
2015-Mar-19 17:33N 55°56' W 004°36'9 9.2
2015-Mar-19 16:32N 55°52' W 004°21'0 0.3
2015-Mar-19 15:29N 55°52' W 004°21'0 0.0
2015-Mar-19 14:16N 55°52' W 004°21'0 0.0
2015-Mar-19 13:10N 55°52' W 004°21'0 0.0
2015-Mar-19 12:27N 55°52' W 004°21'0 0.0
2015-Mar-19 11:27N 55°52' W 004°21'0 0.0
2015-Mar-19 10:27N 55°52' W 004°21'0 0.0
2015-Mar-19 09:32N 55°52' W 004°21'0 0.0
2015-Mar-19 08:26N 55°52' W 004°21'0 0.0
2015-Mar-19 07:25N 55°52' W 004°21'0 0.0
2015-Mar-19 06:31N 55°52' W 004°21'1 0.3
2015-Mar-19 01:33N 55°53' W 004°23'11 8.6
2015-Mar-19 00:17N 55°56' W 004°41'7 8.9
2015-Mar-18 23:33N 55°57' W 004°53'1110.7
2015-Mar-18 22:33N 55°46' W 004°58'2510.8
2015-Mar-18 20:13N 55°21' W 005°04'811.0
2015-Mar-18 19:28N 55°14' W 005°10'910.4
2015-Mar-18 18:33N 55°05' W 005°13'9 9.3
2015-Mar-18 17:33N 54°55' W 005°16'10 9.9
2015-Mar-18 16:33N 54°46' W 005°15'1110.7
2015-Mar-18 15:33N 54°35' W 005°12'1110.9
2015-Mar-18 14:33N 54°24' W 005°08'1111.0
2015-Mar-18 13:33N 54°13' W 005°10'1210.8
2015-Mar-18 12:29N 54°02' W 005°14'  

Dump ship's entire track history